Time;durP1;ratioP1;P1;durP2;ratioP2;P2;SDS_P1;SDS_P2;PMS_P1;PMS_P2;Temp;Humidity;BMP_temperature;BMP_pressure;BME280_temperature;BME280_humidity;BME280_pressure;Samples;Min_cycle;Max_cycle;Signal;HPM_P1;HPM_P2
2023/04/02 00:00:33;;;;;;;3.30;1.20;;;;;;;;;;5077130;28;20455;-71
2023/04/02 00:03:02;;;;;;;4.23;1.57;;;;;;;;;;5076282;28;20548;-71
2023/04/02 00:05:50;;;;;;;5.37;1.40;;;;;;;;;;5075104;28;20540;-71
2023/04/02 00:08:22;;;;;;;5.03;1.10;;;;;;;;;;5071894;28;20869;-71
2023/04/02 00:10:51;;;;;;;5.10;1.70;;;;;;;;;;5074360;28;20862;-71
2023/04/02 00:13:23;;;;;;;3.17;1.20;;;;;;;;;;5073209;28;20556;-71
2023/04/02 00:15:51;;;;;;;3.93;1.50;;;;;;;;;;5074315;28;20503;-71
2023/04/02 00:18:20;;;;;;;5.40;1.53;;;;;;;;;;5073685;28;20460;-71
2023/04/02 00:20:52;;;;;;;4.80;2.00;;;;;;;;;;5075649;28;20464;-72
2023/04/02 00:23:20;;;;;;;2.77;1.00;;;;;;;;;;5075815;28;21183;-72
2023/04/02 00:25:47;;;;;;;3.53;1.00;;;;;;;;;;5074989;28;20553;-72
2023/04/02 00:28:16;;;;;;;2.40;1.40;;;;;;;;;;5075854;28;20492;-71
2023/04/02 00:30:47;;;;;;;4.03;1.40;;;;;;;;;;5075460;28;20494;-72
2023/04/02 00:33:33;;;;;;;2.90;1.10;;;;;;;;;;5075110;28;20524;-72
2023/04/02 00:36:06;;;;;;;3.60;1.40;;;;;;;;;;5074413;28;20821;-72
2023/04/02 00:38:35;;;;;;;4.13;1.13;;;;;;;;;;5074858;28;20804;-71
2023/04/02 00:41:04;;;;;;;5.37;1.40;;;;;;;;;;5075073;28;20460;-72
2023/04/02 00:43:34;;;;;;;4.10;1.30;;;;;;;;;;5075334;28;20452;-72
2023/04/02 00:46:03;;;;;;;3.33;1.33;;;;;;;;;;5074036;28;20457;-72
2023/04/02 00:48:38;;;;;;;2.70;1.00;;;;;;;;;;5075306;28;20471;-72
2023/04/02 00:51:12;;;;;;;4.47;1.10;;;;;;;;;;5074787;28;20451;-72
2023/04/02 00:53:39;;;;;;;6.80;1.50;;;;;;;;;;5075458;28;20551;-72
2023/04/02 00:56:13;;;;;;;3.60;1.20;;;;;;;;;;5075161;28;20672;-71
2023/04/02 00:58:41;;;;;;;3.63;1.40;;;;;;;;;;5075820;28;20453;-72
2023/04/02 01:01:16;;;;;;;9.60;2.30;;;;;;;;;;5075749;28;20480;-72
2023/04/02 01:03:44;;;;;;;4.73;1.40;;;;;;;;;;5074035;28;20445;-72
2023/04/02 01:06:14;;;;;;;2.93;0.90;;;;;;;;;;5074927;28;20452;-72
2023/04/02 01:08:53;;;;;;;4.07;1.87;;;;;;;;;;5076128;28;20456;-72
2023/04/02 01:11:30;;;;;;;2.90;1.20;;;;;;;;;;5079196;28;20633;-72
2023/04/02 01:14:00;;;;;;;2.83;0.97;;;;;;;;;;5077959;28;20714;-72
2023/04/02 01:16:35;;;;;;;4.43;1.37;;;;;;;;;;5078298;28;20510;-72
2023/04/02 01:19:12;;;;;;;7.03;2.47;;;;;;;;;;5058348;28;20514;-72
2023/04/02 01:21:51;;;;;;;5.23;1.00;;;;;;;;;;5059665;28;20865;-72
2023/04/02 01:24:19;;;;;;;8.23;1.43;;;;;;;;;;5058694;28;20454;-72
2023/04/02 01:26:51;;;;;;;3.30;1.10;;;;;;;;;;5058295;28;20545;-72
2023/04/02 01:29:21;;;;;;;5.07;1.93;;;;;;;;;;5057193;28;20482;-73
2023/04/02 01:31:49;;;;;;;5.10;1.37;;;;;;;;;;5076156;28;20469;-72
2023/04/02 01:34:18;;;;;;;2.97;1.03;;;;;;;;;;5079124;28;20456;-72
2023/04/02 01:36:50;;;;;;;2.97;1.60;;;;;;;;;;5077321;28;20506;-72
2023/04/02 01:39:23;;;;;;;4.70;1.53;;;;;;;;;;5077606;28;20534;-72
2023/04/02 01:41:57;;;;;;;4.00;1.73;;;;;;;;;;5077636;28;20457;-72
2023/04/02 01:44:28;;;;;;;9.60;2.10;;;;;;;;;;5076484;28;21002;-72
2023/04/02 01:46:59;;;;;;;6.50;1.17;;;;;;;;;;5077044;28;20464;-72
2023/04/02 01:49:26;;;;;;;5.90;1.87;;;;;;;;;;5076881;28;20492;-72
2023/04/02 01:51:56;;;;;;;7.23;1.70;;;;;;;;;;5077175;28;20488;-72
2023/04/02 01:54:24;;;;;;;4.73;1.80;;;;;;;;;;5074935;28;20587;-72
2023/04/02 01:56:52;;;;;;;7.23;1.40;;;;;;;;;;5076571;28;20477;-72
2023/04/02 01:59:23;;;;;;;4.17;1.83;;;;;;;;;;5077727;28;20453;-72
2023/04/02 02:01:54;;;;;;;4.30;1.03;;;;;;;;;;5078231;28;20464;-71
2023/04/02 02:04:21;;;;;;;8.60;1.40;;;;;;;;;;5073091;28;20445;-71
2023/04/02 02:06:49;;;;;;;4.40;1.53;;;;;;;;;;5079006;28;20426;-72
2023/04/02 02:09:23;;;;;;;6.53;1.30;;;;;;;;;;5079751;28;20460;-71
2023/04/02 02:11:51;;;;;;;2.70;0.97;;;;;;;;;;5080312;28;20465;-72
2023/04/02 02:14:20;;;;;;;5.87;1.90;;;;;;;;;;5079311;28;20449;-72
2023/04/02 02:16:48;;;;;;;7.23;1.40;;;;;;;;;;5075047;28;20741;-71
2023/04/02 02:19:24;;;;;;;5.57;1.80;;;;;;;;;;5077335;28;20459;-72
2023/04/02 02:22:05;;;;;;;2.70;1.30;;;;;;;;;;5077703;28;20484;-71
2023/04/02 02:24:35;;;;;;;5.77;1.50;;;;;;;;;;5074663;28;20473;-72
2023/04/02 02:27:09;;;;;;;10.00;1.87;;;;;;;;;;5077524;28;20524;-71
2023/04/02 02:29:42;;;;;;;4.90;1.40;;;;;;;;;;5077662;28;20472;-72
2023/04/02 02:32:11;;;;;;;4.10;1.37;;;;;;;;;;5077868;28;20754;-71
2023/04/02 02:34:43;;;;;;;6.37;1.57;;;;;;;;;;5076184;28;20472;-71
2023/04/02 02:37:16;;;;;;;5.60;1.40;;;;;;;;;;5077051;28;20473;-71
2023/04/02 02:39:45;;;;;;;3.67;2.53;;;;;;;;;;5075715;28;20479;-71
2023/04/02 02:42:18;;;;;;;6.80;1.57;;;;;;;;;;5076622;28;20480;-72
2023/04/02 02:44:48;;;;;;;3.77;1.40;;;;;;;;;;5076491;28;20496;-71
2023/04/02 02:47:17;;;;;;;5.23;0.90;;;;;;;;;;5075704;28;20457;-71
2023/04/02 02:49:48;;;;;;;6.50;1.07;;;;;;;;;;5077174;28;20485;-72
2023/04/02 02:52:17;;;;;;;6.80;1.10;;;;;;;;;;5076459;28;20881;-72
2023/04/02 02:54:46;;;;;;;2.60;1.40;;;;;;;;;;5077096;28;20556;-72
2023/04/02 02:57:15;;;;;;;3.60;0.97;;;;;;;;;;5076499;28;20437;-72
2023/04/02 02:59:43;;;;;;;5.10;1.20;;;;;;;;;;5076816;28;20449;-72
2023/04/02 03:02:11;;;;;;;4.50;1.60;;;;;;;;;;5077789;28;20720;-72
2023/04/02 03:04:39;;;;;;;3.30;1.07;;;;;;;;;;5077126;28;20457;-72
2023/04/02 03:07:09;;;;;;;8.77;1.77;;;;;;;;;;5076235;28;20496;-70
2023/04/02 03:09:42;;;;;;;4.03;1.33;;;;;;;;;;5076931;28;20891;-73
2023/04/02 03:12:17;;;;;;;3.30;1.00;;;;;;;;;;5076852;28;20456;-72
2023/04/02 03:14:46;;;;;;;4.87;1.23;;;;;;;;;;5076865;28;20476;-72
2023/04/02 03:17:18;;;;;;;4.00;1.13;;;;;;;;;;5076950;28;20549;-71
2023/04/02 03:19:47;;;;;;;3.40;1.07;;;;;;;;;;5075822;28;20480;-72
2023/04/02 03:22:19;;;;;;;4.50;1.37;;;;;;;;;;5076754;28;20843;-72
2023/04/02 03:24:54;;;;;;;4.10;1.13;;;;;;;;;;5075425;28;20746;-72
2023/04/02 03:27:23;;;;;;;2.33;1.00;;;;;;;;;;5075995;28;20449;-72
2023/04/02 03:30:01;;;;;;;7.20;1.73;;;;;;;;;;5074739;28;20567;-73
2023/04/02 03:32:30;;;;;;;7.23;1.30;;;;;;;;;;5075283;28;20463;-72
2023/04/02 03:35:03;;;;;;;4.43;1.40;;;;;;;;;;5075614;28;20510;-72
2023/04/02 03:37:34;;;;;;;4.33;1.07;;;;;;;;;;5078472;28;20457;-72
2023/04/02 03:40:19;;;;;;;3.53;1.40;;;;;;;;;;5076346;28;20489;-72
2023/04/02 03:42:48;;;;;;;10.33;1.40;;;;;;;;;;5077068;28;20485;-71
2023/04/02 03:45:19;;;;;;;3.27;0.87;;;;;;;;;;5077025;28;20445;-72
2023/04/02 03:47:50;;;;;;;2.80;0.90;;;;;;;;;;5076982;28;20480;-71
2023/04/02 03:50:20;;;;;;;8.60;1.53;;;;;;;;;;5078382;28;20488;-71
2023/04/02 03:52:52;;;;;;;4.30;1.10;;;;;;;;;;5077437;28;20857;-72
2023/04/02 03:55:22;;;;;;;8.50;1.47;;;;;;;;;;5076268;28;20465;-73
2023/04/02 03:57:54;;;;;;;3.80;1.00;;;;;;;;;;5076165;28;20453;-72
2023/04/02 04:00:25;;;;;;;7.43;1.10;;;;;;;;;;5075875;28;20541;-73
2023/04/02 04:02:57;;;;;;;5.43;2.13;;;;;;;;;;5076331;28;20529;-72
2023/04/02 04:05:28;;;;;;;7.40;2.20;;;;;;;;;;5075875;28;20912;-72
2023/04/02 04:08:00;;;;;;;3.23;1.10;;;;;;;;;;5076327;28;20453;-72
2023/04/02 04:10:28;;;;;;;2.90;1.20;;;;;;;;;;5076665;28;20507;-72
2023/04/02 04:12:58;;;;;;;4.93;1.50;;;;;;;;;;5074876;28;20961;-72
2023/04/02 04:15:27;;;;;;;3.90;1.10;;;;;;;;;;5075494;28;20460;-72
2023/04/02 04:18:00;;;;;;;5.03;1.70;;;;;;;;;;5075388;28;20945;-71
2023/04/02 04:20:32;;;;;;;4.40;1.20;;;;;;;;;;5076194;28;20445;-71
2023/04/02 04:23:10;;;;;;;3.50;1.20;;;;;;;;;;5074423;28;20470;-71
2023/04/02 04:25:38;;;;;;;6.63;1.10;;;;;;;;;;5075545;28;20457;-72
2023/04/02 04:28:11;;;;;;;4.73;1.37;;;;;;;;;;5075605;28;20472;-71
2023/04/02 04:30:44;;;;;;;5.40;1.20;;;;;;;;;;5076630;28;20945;-71
2023/04/02 04:33:14;;;;;;;2.30;0.90;;;;;;;;;;5076422;28;20457;-71
2023/04/02 04:35:45;;;;;;;3.03;0.90;;;;;;;;;;5077471;28;20499;-72
2023/04/02 04:38:16;;;;;;;3.97;1.10;;;;;;;;;;5077028;28;20461;-72
2023/04/02 04:40:49;;;;;;;2.90;1.03;;;;;;;;;;5076842;28;20461;-72
2023/04/02 04:43:19;;;;;;;2.93;1.07;;;;;;;;;;5077742;28;20474;-72
2023/04/02 04:45:48;;;;;;;3.50;0.70;;;;;;;;;;5076753;28;20468;-72
2023/04/02 04:48:17;;;;;;;5.17;1.43;;;;;;;;;;5078267;28;20497;-72
2023/04/02 04:50:48;;;;;;;3.10;1.17;;;;;;;;;;5077385;28;20489;-72
2023/04/02 04:53:18;;;;;;;5.60;1.60;;;;;;;;;;5076179;28;20484;-72
2023/04/02 04:55:46;;;;;;;6.50;1.10;;;;;;;;;;5075596;28;20457;-72
2023/04/02 04:58:18;;;;;;;4.13;1.03;;;;;;;;;;5075764;28;20487;-72
2023/04/02 05:00:51;;;;;;;3.70;0.70;;;;;;;;;;5076145;28;20555;-72
2023/04/02 05:03:26;;;;;;;6.60;1.37;;;;;;;;;;5074325;28;20912;-72
2023/04/02 05:05:54;;;;;;;2.17;1.03;;;;;;;;;;5075516;28;20776;-72
2023/04/02 05:08:25;;;;;;;3.53;1.03;;;;;;;;;;5075026;28;20515;-72
2023/04/02 05:10:56;;;;;;;4.47;1.00;;;;;;;;;;5075811;28;20492;-72
2023/04/02 05:13:24;;;;;;;2.57;0.80;;;;;;;;;;5076082;28;20473;-72
2023/04/02 05:15:55;;;;;;;3.30;1.00;;;;;;;;;;5075530;28;20457;-72
2023/04/02 05:18:26;;;;;;;3.27;0.83;;;;;;;;;;5075888;28;20525;-72
2023/04/02 05:20:57;;;;;;;3.30;0.90;;;;;;;;;;5076061;28;20491;-72
2023/04/02 05:23:27;;;;;;;5.57;1.07;;;;;;;;;;5074137;28;20453;-72
2023/04/02 05:25:58;;;;;;;3.30;0.87;;;;;;;;;;5075528;28;20875;-71
2023/04/02 05:28:30;;;;;;;4.30;0.80;;;;;;;;;;5075962;28;20539;-72
2023/04/02 05:31:00;;;;;;;1.90;0.73;;;;;;;;;;5076280;28;20575;-72
2023/04/02 05:33:29;;;;;;;5.80;0.90;;;;;;;;;;5076494;28;20453;-72
2023/04/02 05:36:01;;;;;;;5.93;1.00;;;;;;;;;;5074984;28;20449;-72
2023/04/02 05:38:31;;;;;;;4.10;0.90;;;;;;;;;;5076400;28;20488;-72
2023/04/02 05:41:02;;;;;;;3.00;1.13;;;;;;;;;;5075448;28;20495;-72
2023/04/02 05:43:32;;;;;;;5.00;0.90;;;;;;;;;;5076667;28;20580;-72
2023/04/02 05:46:01;;;;;;;4.00;1.07;;;;;;;;;;5074547;28;20753;-72
2023/04/02 05:48:31;;;;;;;4.60;1.10;;;;;;;;;;5075115;28;20460;-72
2023/04/02 05:50:59;;;;;;;3.60;2.00;;;;;;;;;;5074915;28;20592;-72
2023/04/02 05:53:29;;;;;;;3.60;1.10;;;;;;;;;;5075056;28;20487;-73
2023/04/02 05:55:59;;;;;;;4.07;1.60;;;;;;;;;;5077946;28;20471;-72
2023/04/02 05:58:30;;;;;;;2.60;0.80;;;;;;;;;;5079377;28;20453;-72
2023/04/02 06:01:14;;;;;;;4.27;1.10;;;;;;;;;;5079815;28;20445;-71
2023/04/02 06:03:45;;;;;;;1.87;0.80;;;;;;;;;;5078115;28;20463;-72
2023/04/02 06:06:17;;;;;;;4.83;1.37;;;;;;;;;;5076755;28;20457;-72
2023/04/02 06:08:58;;;;;;;2.73;0.90;;;;;;;;;;5078883;28;20551;-72
2023/04/02 06:11:31;;;;;;;3.17;0.90;;;;;;;;;;5080545;28;20908;-73
2023/04/02 06:13:58;;;;;;;5.83;1.27;;;;;;;;;;5076507;28;20772;-72
2023/04/02 06:16:26;;;;;;;2.93;1.00;;;;;;;;;;5077771;28;20553;-72
2023/04/02 06:18:54;;;;;;;3.30;0.80;;;;;;;;;;5077370;28;20496;-72
2023/04/02 06:21:22;;;;;;;4.03;1.17;;;;;;;;;;5078480;28;20463;-72
2023/04/02 06:23:52;;;;;;;3.50;1.00;;;;;;;;;;5077680;28;20464;-72
2023/04/02 06:26:22;;;;;;;2.20;1.00;;;;;;;;;;5078265;28;20536;-72
2023/04/02 06:28:53;;;;;;;2.60;0.97;;;;;;;;;;5077423;28;20516;-72
2023/04/02 06:31:25;;;;;;;4.73;1.00;;;;;;;;;;5077781;28;20500;-71
2023/04/02 06:33:53;;;;;;;4.43;1.50;;;;;;;;;;5078325;28;20552;-72
2023/04/02 06:36:21;;;;;;;3.27;1.33;;;;;;;;;;5077325;28;20465;-70
2023/04/02 06:38:49;;;;;;;4.43;1.07;;;;;;;;;;5057947;28;20523;-72
2023/04/02 06:41:20;;;;;;;3.07;1.00;;;;;;;;;;5059063;28;20457;-71
2023/04/02 06:46:38;;;;;;;3.60;1.00;;;;;;;;;;5057546;28;20458;-71
2023/04/02 06:49:19;;;;;;;3.00;1.00;;;;;;;;;;5075365;28;20464;-71
2023/04/02 06:51:48;;;;;;;1.80;0.70;;;;;;;;;;5076362;28;20504;-71
2023/04/02 06:54:16;;;;;;;3.83;1.27;;;;;;;;;;5077768;28;20508;-71
2023/04/02 06:56:45;;;;;;;4.53;0.93;;;;;;;;;;5078580;28;20461;-71
2023/04/02 06:59:13;;;;;;;2.70;1.10;;;;;;;;;;5079256;28;21014;-71
2023/04/02 07:01:47;;;;;;;4.73;1.23;;;;;;;;;;5078951;28;20460;-71
2023/04/02 07:04:15;;;;;;;4.07;1.57;;;;;;;;;;5077682;28;20467;-71
2023/04/02 07:06:42;;;;;;;5.67;1.00;;;;;;;;;;5077511;28;20526;-71
2023/04/02 07:09:09;;;;;;;8.60;1.30;;;;;;;;;;5079862;28;20449;-72
2023/04/02 07:11:37;;;;;;;3.00;1.10;;;;;;;;;;5079103;28;20500;-72
2023/04/02 07:14:08;;;;;;;2.90;1.00;;;;;;;;;;5078294;28;20529;-72
2023/04/02 07:16:36;;;;;;;5.37;1.13;;;;;;;;;;5078894;28;20457;-72
2023/04/02 07:19:05;;;;;;;5.23;1.40;;;;;;;;;;5076326;28;20484;-71
2023/04/02 07:21:38;;;;;;;9.63;1.10;;;;;;;;;;5078407;28;20468;-70
2023/04/02 07:24:06;;;;;;;2.17;0.80;;;;;;;;;;5077996;28;20492;-70
2023/04/02 07:26:36;;;;;;;2.43;0.90;;;;;;;;;;5077955;28;20457;-72
2023/04/02 07:29:04;;;;;;;3.90;0.80;;;;;;;;;;5075397;28;21082;-72
2023/04/02 07:31:32;;;;;;;2.53;1.00;;;;;;;;;;5075837;28;20485;-71
2023/04/02 07:34:00;;;;;;;2.00;0.90;;;;;;;;;;5074339;28;20548;-70
2023/04/02 07:36:30;;;;;;;3.37;1.20;;;;;;;;;;5074195;28;20448;-70
2023/04/02 07:38:57;;;;;;;2.83;1.00;;;;;;;;;;5073837;28;20530;-72
2023/04/02 07:41:25;;;;;;;6.27;1.93;;;;;;;;;;5074000;28;20519;-72
2023/04/02 07:43:52;;;;;;;3.20;0.90;;;;;;;;;;5074770;28;20457;-71
2023/04/02 07:46:20;;;;;;;1.80;0.90;;;;;;;;;;5074367;28;20441;-71
2023/04/02 07:48:50;;;;;;;2.10;0.80;;;;;;;;;;5074873;28;20456;-71
2023/04/02 07:51:19;;;;;;;3.43;1.00;;;;;;;;;;5075520;28;20855;-70
2023/04/02 07:53:54;;;;;;;5.73;3.13;;;;;;;;;;5065727;28;20525;-71
2023/04/02 07:56:22;;;;;;;3.00;1.23;;;;;;;;;;5044887;28;20545;-70
2023/04/02 07:58:52;;;;;;;4.80;1.07;;;;;;;;;;5057257;28;20468;-71
2023/04/02 08:01:24;;;;;;;4.13;1.10;;;;;;;;;;5055589;28;20519;-72
2023/04/02 08:03:55;;;;;;;2.53;0.80;;;;;;;;;;5053831;28;20462;-72
2023/04/02 08:06:24;;;;;;;4.23;0.90;;;;;;;;;;5053587;28;20556;-72
2023/04/02 08:08:56;;;;;;;3.13;0.87;;;;;;;;;;5058375;28;21130;-72
2023/04/02 08:11:23;;;;;;;2.80;0.70;;;;;;;;;;5053288;28;21067;-71
2023/04/02 08:13:51;;;;;;;3.67;1.47;;;;;;;;;;5053646;28;20454;-72
2023/04/02 08:16:22;;;;;;;3.07;0.90;;;;;;;;;;5055229;28;20785;-70
2023/04/02 08:18:52;;;;;;;2.33;1.60;;;;;;;;;;5050416;28;20565;-70
2023/04/02 08:21:24;;;;;;;3.60;1.00;;;;;;;;;;5050990;28;20485;-70
2023/04/02 08:24:00;;;;;;;8.03;2.17;;;;;;;;;;5049218;28;21074;-71
2023/04/02 08:26:28;;;;;;;4.07;1.10;;;;;;;;;;5053728;28;20458;-71
2023/04/02 08:28:56;;;;;;;3.07;1.17;;;;;;;;;;5051442;28;20449;-70
2023/04/02 08:31:23;;;;;;;2.17;0.80;;;;;;;;;;5050825;28;20489;-70
2023/04/02 08:33:52;;;;;;;3.83;1.63;;;;;;;;;;5030288;28;20525;-71
2023/04/02 08:36:24;;;;;;;4.30;0.80;;;;;;;;;;5048468;28;20489;-71
2023/04/02 08:38:52;;;;;;;5.23;0.90;;;;;;;;;;5037316;28;20528;-71
2023/04/02 08:41:26;;;;;;;3.90;0.83;;;;;;;;;;5051091;28;20740;-70
2023/04/02 08:44:19;;;;;;;3.97;0.80;;;;;;;;;;5051874;28;21041;-71
2023/04/02 08:46:56;;;;;;;3.33;1.10;;;;;;;;;;5034976;28;20886;-72
2023/04/02 08:49:28;;;;;;;3.43;0.97;;;;;;;;;;5060206;28;20514;-71
2023/04/02 08:51:58;;;;;;;2.40;0.73;;;;;;;;;;5058949;28;20505;-72
2023/04/02 08:54:41;;;;;;;3.83;0.97;;;;;;;;;;5059630;28;20876;-70
2023/04/02 08:57:16;;;;;;;1.63;0.60;;;;;;;;;;5056242;28;20895;-72
2023/04/02 08:59:58;;;;;;;4.23;1.07;;;;;;;;;;5044629;28;20493;-71
2023/04/02 09:02:29;;;;;;;5.93;0.83;;;;;;;;;;5053164;28;20481;-71
2023/04/02 09:04:57;;;;;;;3.83;0.70;;;;;;;;;;5055359;28;20495;-72
2023/04/02 09:07:28;;;;;;;2.80;1.13;;;;;;;;;;5062391;28;20904;-71
2023/04/02 09:09:57;;;;;;;3.60;0.93;;;;;;;;;;5058485;28;20524;-71
2023/04/02 09:12:32;;;;;;;1.60;0.60;;;;;;;;;;5054440;28;20917;-72
2023/04/02 09:15:19;;;;;;;2.53;1.50;;;;;;;;;;5059955;28;20448;-72
2023/04/02 09:17:50;;;;;;;2.20;0.70;;;;;;;;;;5053774;28;20557;-71
2023/04/02 09:20:20;;;;;;;2.23;0.93;;;;;;;;;;5055433;28;20835;-72
2023/04/02 09:22:58;;;;;;;2.40;0.80;;;;;;;;;;5054310;28;20485;-72
2023/04/02 09:25:31;;;;;;;4.43;1.10;;;;;;;;;;5046052;28;20469;-71
2023/04/02 09:28:01;;;;;;;4.60;1.20;;;;;;;;;;5055112;28;20921;-72
2023/04/02 09:33:43;;;;;;;6.97;1.17;;;;;;;;;;5052517;28;20498;-71
2023/04/02 09:36:19;;;;;;;3.17;0.80;;;;;;;;;;5055788;28;20454;-71
2023/04/02 09:39:05;;;;;;;4.70;1.77;;;;;;;;;;5052990;28;20470;-71
2023/04/02 09:41:35;;;;;;;4.93;1.87;;;;;;;;;;5037025;28;20957;-71
2023/04/02 09:44:22;;;;;;;4.43;0.70;;;;;;;;;;5051371;28;20540;-71
2023/04/02 09:47:02;;;;;;;2.53;0.70;;;;;;;;;;5057095;28;20493;-71
2023/04/02 09:49:41;;;;;;;7.60;0.90;;;;;;;;;;5056416;28;20453;-72
2023/04/02 09:52:30;;;;;;;2.20;0.83;;;;;;;;;;5055781;28;20492;-71
2023/04/02 09:55:25;;;;;;;2.57;0.90;;;;;;;;;;5055007;28;20441;-72
2023/04/02 09:58:11;;;;;;;5.10;0.70;;;;;;;;;;5051280;28;20454;-71
2023/04/02 10:00:56;;;;;;;2.37;1.10;;;;;;;;;;5038925;28;20467;-71
2023/04/02 10:03:33;;;;;;;2.97;0.87;;;;;;;;;;5051566;28;20456;-71
2023/04/02 10:06:05;;;;;;;3.13;1.20;;;;;;;;;;5053541;28;20449;-70
2023/04/02 10:08:33;;;;;;;3.30;0.77;;;;;;;;;;5051703;28;20483;-71
2023/04/02 10:11:03;;;;;;;3.70;1.00;;;;;;;;;;5054008;28;20496;-73
2023/04/02 10:13:36;;;;;;;2.07;0.70;;;;;;;;;;5046638;28;20977;-70
2023/04/02 10:16:14;;;;;;;4.50;0.80;;;;;;;;;;5044466;28;20757;-70
2023/04/02 10:18:48;;;;;;;3.80;1.00;;;;;;;;;;5050574;28;20458;-71
2023/04/02 10:21:22;;;;;;;1.50;0.70;;;;;;;;;;5047793;28;20523;-71
2023/04/02 10:24:02;;;;;;;2.83;0.90;;;;;;;;;;5053490;28;20441;-72
2023/04/02 10:26:47;;;;;;;2.77;0.77;;;;;;;;;;5053666;28;20545;-71
2023/04/02 10:29:35;;;;;;;2.23;0.97;;;;;;;;;;5053715;28;20450;-72
2023/04/02 10:32:19;;;;;;;;;;;;;;;;;;;;;
2023/04/02 10:35:00;;;;;;;2.77;0.70;;;;;;;;;;5035621;28;20782;-72
2023/04/02 10:37:49;;;;;;;2.10;0.83;;;;;;;;;;5034058;28;20455;-72
2023/04/02 10:40:22;;;;;;;3.50;0.80;;;;;;;;;;5037737;28;20908;-71
2023/04/02 10:42:59;;;;;;;5.47;1.10;;;;;;;;;;5055415;28;20461;-72
2023/04/02 10:45:40;;;;;;;2.90;1.33;;;;;;;;;;5057437;28;20499;-70
2023/04/02 10:48:22;;;;;;;4.77;1.10;;;;;;;;;;5054631;28;20580;-70
2023/04/02 10:50:55;;;;;;;2.60;0.60;;;;;;;;;;5045732;28;20556;-72
2023/04/02 10:59:35;;;;;;;4.50;1.00;;;;;;;;;;5057794;28;20483;-71
2023/04/02 11:02:13;;;;;;;3.93;0.83;;;;;;;;;;5082820;28;20460;-71
2023/04/02 11:04:48;;;;;;;2.80;1.00;;;;;;;;;;5092317;28;20558;-70
2023/04/02 11:07:24;;;;;;;2.33;0.73;;;;;;;;;;5092578;28;20794;-71
2023/04/02 11:09:57;;;;;;;2.40;0.73;;;;;;;;;;5094449;28;20450;-71
2023/04/02 11:12:27;;;;;;;3.33;0.97;;;;;;;;;;5095287;28;20479;-71
2023/04/02 11:14:56;;;;;;;2.00;0.70;;;;;;;;;;5095289;28;20555;-72
2023/04/02 11:17:24;;;;;;;9.67;2.93;;;;;;;;;;5079997;28;20451;-71
2023/04/02 11:19:59;;;;;;;2.90;1.30;;;;;;;;;;5088799;28;20475;-71
2023/04/02 11:22:36;;;;;;;4.87;0.87;;;;;;;;;;5093630;28;20513;-72
2023/04/02 11:25:06;;;;;;;3.00;0.87;;;;;;;;;;5095418;28;20605;-71
2023/04/02 11:27:35;;;;;;;5.63;1.03;;;;;;;;;;5094551;28;20464;-72
2023/04/02 11:30:12;;;;;;;4.53;1.27;;;;;;;;;;5094151;28;20456;-72
2023/04/02 11:32:41;;;;;;;3.30;1.00;;;;;;;;;;5093476;28;20475;-71
2023/04/02 11:35:24;;;;;;;3.70;0.70;;;;;;;;;;5084684;28;20936;-71
2023/04/02 11:38:08;;;;;;;3.73;1.00;;;;;;;;;;5091608;28;20456;-71
2023/04/02 11:40:54;;;;;;;2.47;0.80;;;;;;;;;;5074053;28;21036;-71
2023/04/02 11:43:44;;;;;;;4.60;1.33;;;;;;;;;;5083926;28;20452;-72
2023/04/02 11:46:35;;;;;;;4.23;0.90;;;;;;;;;;5072151;28;20481;-72
2023/04/02 11:49:28;;;;;;;3.07;1.03;;;;;;;;;;5077792;28;20448;-72
2023/04/02 11:51:55;;;;;;;3.17;0.87;;;;;;;;;;5055768;28;20940;-72
2023/04/02 11:54:25;;;;;;;4.70;0.90;;;;;;;;;;5092969;28;20488;-71
2023/04/02 11:57:02;;;;;;;5.87;1.57;;;;;;;;;;5093005;28;20456;-71
2023/04/02 11:59:33;;;;;;;5.70;2.37;;;;;;;;;;5093297;28;20484;-72
2023/04/02 12:02:06;;;;;;;8.23;1.00;;;;;;;;;;5085960;28;20526;-73
2023/04/02 12:05:13;;;;;;;3.47;1.17;;;;;;;;;;5088511;28;20468;-72
2023/04/02 12:08:04;;;;;;;7.40;3.87;;;;;;;;;;5078830;28;20772;-71
2023/04/02 12:11:03;;;;;;;2.50;0.80;;;;;;;;;;5079731;28;20464;-72
2023/04/02 12:16:34;;;;;;;4.07;1.00;;;;;;;;;;5079254;28;20443;-72
2023/04/02 12:19:15;;;;;;;3.17;0.97;;;;;;;;;;5088098;28;20453;-72
2023/04/02 12:21:55;;;;;;;4.33;1.10;;;;;;;;;;5076034;28;20445;-72
2023/04/02 12:24:31;;;;;;;3.43;0.90;;;;;;;;;;5077357;28;20718;-71
2023/04/02 12:27:31;;;;;;;3.60;1.00;;;;;;;;;;5094380;28;20451;-73
2023/04/02 12:30:34;;;;;;;2.80;0.90;;;;;;;;;;5090960;28;20441;-71
2023/04/02 12:35:52;;;;;;;3.37;0.93;;;;;;;;;;5061477;28;20523;-72
2023/04/02 12:38:36;;;;;;;3.53;0.80;;;;;;;;;;5058886;28;20442;-71
2023/04/02 12:41:31;;;;;;;3.00;1.00;;;;;;;;;;5056041;28;20780;-72
2023/04/02 12:44:22;;;;;;;4.40;0.90;;;;;;;;;;5059384;28;20477;-73
2023/04/02 12:47:20;;;;;;;3.90;0.90;;;;;;;;;;5061505;28;20921;-72
2023/04/02 12:49:52;;;;;;;6.73;1.80;;;;;;;;;;5050470;28;20464;-74
2023/04/02 12:52:53;;;;;;;6.93;1.07;;;;;;;;;;5058100;28;20442;-72
2023/04/02 12:55:30;;;;;;;3.37;1.00;;;;;;;;;;5070381;28;20484;-72
2023/04/02 13:00:52;;;;;;;3.00;0.80;;;;;;;;;;5062334;28;21034;-72
2023/04/02 13:03:23;;;;;;;4.40;1.20;;;;;;;;;;5064046;28;20445;-73
2023/04/02 13:05:57;;;;;;;3.07;1.00;;;;;;;;;;5064775;28;20554;-73
2023/04/02 13:08:30;;;;;;;3.27;0.80;;;;;;;;;;5067094;28;20452;-73
2023/04/02 13:11:21;;;;;;;4.27;1.00;;;;;;;;;;5067167;28;20581;-73
2023/04/02 13:13:53;;;;;;;3.80;1.53;;;;;;;;;;5068308;28;20513;-73
2023/04/02 13:16:48;;;;;;;3.13;0.93;;;;;;;;;;5067764;28;20456;-73
2023/04/02 13:19:25;;;;;;;2.80;0.80;;;;;;;;;;5063182;28;20429;-73
2023/04/02 13:21:57;;;;;;;3.37;1.17;;;;;;;;;;5068564;28;20654;-73
2023/04/02 13:24:30;;;;;;;5.70;2.30;;;;;;;;;;5071055;28;20518;-73
2023/04/02 13:27:15;;;;;;;2.40;0.70;;;;;;;;;;5072815;28;20546;-72
2023/04/02 13:29:49;;;;;;;5.37;1.60;;;;;;;;;;5071188;28;20464;-72
2023/04/02 13:32:23;;;;;;;5.27;2.03;;;;;;;;;;5072758;28;21024;-73
2023/04/02 13:35:01;;;;;;;5.13;1.20;;;;;;;;;;5076485;28;20807;-73
2023/04/02 13:37:29;;;;;;;4.87;1.30;;;;;;;;;;5075105;28;20448;-72
2023/04/02 13:39:57;;;;;;;3.50;1.23;;;;;;;;;;5075043;28;20759;-72
2023/04/02 13:42:25;;;;;;;3.10;0.80;;;;;;;;;;5074736;28;20445;-72
2023/04/02 13:44:55;;;;;;;3.67;1.03;;;;;;;;;;5074264;28;20441;-72
2023/04/02 13:47:22;;;;;;;3.70;1.10;;;;;;;;;;5073455;28;20460;-73
2023/04/02 13:49:50;;;;;;;4.67;1.30;;;;;;;;;;5072774;28;20456;-74
2023/04/02 13:52:23;;;;;;;4.03;1.13;;;;;;;;;;5074629;28;20666;-73
2023/04/02 13:54:54;;;;;;;3.90;0.90;;;;;;;;;;5073739;28;20495;-73
2023/04/02 13:57:28;;;;;;;4.07;1.20;;;;;;;;;;5073903;28;20463;-73
2023/04/02 14:00:13;;;;;;;3.00;1.13;;;;;;;;;;5074720;28;20473;-73
2023/04/02 14:02:47;;;;;;;4.27;1.07;;;;;;;;;;5062250;28;20451;-73
2023/04/02 14:05:20;;;;;;;2.93;0.80;;;;;;;;;;5056622;28;20453;-72
2023/04/02 14:07:58;;;;;;;4.57;1.57;;;;;;;;;;5057234;28;20450;-73
2023/04/02 14:10:29;;;;;;;3.67;1.07;;;;;;;;;;5061882;28;20520;-73
2023/04/02 14:13:16;;;;;;;4.97;1.53;;;;;;;;;;5075510;28;20496;-73
2023/04/02 14:16:05;;;;;;;4.67;1.00;;;;;;;;;;5075487;28;20570;-73
2023/04/02 14:18:43;;;;;;;5.07;1.17;;;;;;;;;;5066105;28;20908;-73
2023/04/02 14:21:26;;;;;;;3.50;1.20;;;;;;;;;;5058302;28;20881;-73
2023/04/02 14:24:10;;;;;;;5.57;1.30;;;;;;;;;;5056039;28;20446;-73
2023/04/02 14:26:56;;;;;;;7.60;2.90;;;;;;;;;;5055702;28;20517;-72
2023/04/02 14:29:29;;;;;;;5.13;0.90;;;;;;;;;;5070279;28;20719;-74
2023/04/02 14:32:12;;;;;;;2.67;0.60;;;;;;;;;;5072810;28;20436;-73
2023/04/02 14:34:51;;;;;;;4.87;2.20;;;;;;;;;;5071642;28;20535;-73
2023/04/02 14:40:24;;;;;;;2.97;0.90;;;;;;;;;;5071581;28;20449;-73
2023/04/02 14:42:58;;;;;;;7.13;1.50;;;;;;;;;;5069180;28;20886;-73
2023/04/02 14:45:39;;;;;;;2.77;0.87;;;;;;;;;;5071239;28;21038;-73
2023/04/02 14:48:13;;;;;;;4.63;1.00;;;;;;;;;;5073512;28;20464;-73
2023/04/02 14:50:42;;;;;;;5.90;1.90;;;;;;;;;;5073376;28;20453;-72
2023/04/02 14:53:13;;;;;;;3.47;1.20;;;;;;;;;;5070737;28;20746;-72
2023/04/02 14:55:50;;;;;;;5.37;1.83;;;;;;;;;;5069774;28;20939;-72
2023/04/02 14:58:21;;;;;;;5.10;1.40;;;;;;;;;;5070249;28;20456;-73
2023/04/02 15:00:54;;;;;;;4.80;1.40;;;;;;;;;;5072357;28;20460;-72
2023/04/02 15:03:30;;;;;;;3.80;1.00;;;;;;;;;;5070932;28;20450;-72
2023/04/02 15:06:17;;;;;;;6.10;1.20;;;;;;;;;;5069384;28;20536;-72
2023/04/02 15:09:00;;;;;;;2.43;0.90;;;;;;;;;;5065951;28;20461;-72
2023/04/02 15:14:23;;;;;;;4.57;1.20;;;;;;;;;;5065282;28;20537;-72
2023/04/02 15:16:57;;;;;;;5.93;1.33;;;;;;;;;;5064888;28;20456;-72
2023/04/02 15:19:26;;;;;;;3.10;1.10;;;;;;;;;;5069634;28;20472;-73
2023/04/02 15:21:59;;;;;;;6.93;1.37;;;;;;;;;;5072609;28;20826;-73
2023/04/02 15:24:33;;;;;;;4.30;1.33;;;;;;;;;;5062154;28;20489;-73
2023/04/02 15:27:24;;;;;;;6.63;2.30;;;;;;;;;;5048777;28;20508;-73
2023/04/02 15:29:54;;;;;;;8.80;1.70;;;;;;;;;;5049035;28;20464;-72
2023/04/02 15:32:29;;;;;;;6.50;1.20;;;;;;;;;;5051220;28;20457;-73
2023/04/02 15:35:07;;;;;;;4.20;1.60;;;;;;;;;;5049742;28;20481;-73
2023/04/02 15:37:54;;;;;;;6.00;1.23;;;;;;;;;;5049220;28;20454;-73
2023/04/02 15:41:01;;;;;;;5.17;1.53;;;;;;;;;;5048763;28;20458;-72
2023/04/02 15:43:32;;;;;;;7.13;1.97;;;;;;;;;;5011293;28;20466;-73
2023/04/02 15:46:30;;;;;;;9.30;1.77;;;;;;;;;;5061536;28;20500;-72
2023/04/02 15:49:26;;;;;;;4.50;1.97;;;;;;;;;;5067257;28;20441;-73